createdAt,value
2019-04-01T00:00:51.290Z,1000.90
2019-04-01T00:01:51.273Z,1001.01
2019-04-01T00:02:51.433Z,1000.97
2019-04-01T00:03:51.252Z,1000.98
2019-04-01T00:04:51.239Z,1001.01
2019-04-01T00:05:51.233Z,1000.95
2019-04-01T00:06:51.219Z,1000.99
2019-04-01T00:07:51.206Z,1001.00
2019-04-01T00:08:51.273Z,1001.00
2019-04-01T00:09:51.196Z,1000.98
2019-04-01T00:10:51.178Z,1001.02
2019-04-01T00:11:51.165Z,1001.06
2019-04-01T00:12:51.156Z,1001.09
2019-04-01T00:13:51.149Z,1001.13
2019-04-01T00:14:51.174Z,1001.21
2019-04-01T00:16:01.535Z,1001.20
2019-04-01T00:16:51.109Z,1001.22
2019-04-01T00:17:51.099Z,1001.23
2019-04-01T00:19:02.335Z,1001.21
2019-04-01T00:19:52.123Z,1001.25
2019-04-01T00:20:51.069Z,1001.27
2019-04-01T00:21:51.057Z,1001.29
2019-04-01T00:22:51.190Z,1001.31
2019-04-01T00:23:51.040Z,1001.30
2019-04-01T00:24:51.024Z,1001.32
2019-04-01T00:25:51.053Z,1001.33
2019-04-01T00:26:51.006Z,1001.38
2019-04-01T00:27:50.991Z,1001.38
2019-04-01T00:28:50.985Z,1001.40
2019-04-01T00:29:50.974Z,1001.43
2019-04-01T00:30:50.959Z,1001.43
2019-04-01T00:31:50.958Z,1001.43
2019-04-01T00:32:50.937Z,1001.48
2019-04-01T00:33:50.930Z,1001.53
2019-04-01T00:34:50.919Z,1001.51
2019-04-01T00:35:50.916Z,1001.54
2019-04-01T00:36:50.931Z,1001.56
2019-04-01T00:37:50.887Z,1001.58
2019-04-01T00:38:50.873Z,1001.64
2019-04-01T00:39:50.867Z,1001.62
2019-04-01T00:40:50.851Z,1001.60
2019-04-01T00:41:50.838Z,1001.62
2019-04-01T00:42:50.837Z,1001.69
2019-04-01T00:43:50.850Z,1001.68
2019-04-01T00:44:50.813Z,1001.66
2019-04-01T00:45:50.799Z,1001.72
2019-04-01T00:47:00.666Z,1001.71
2019-04-01T00:47:50.779Z,1001.74
2019-04-01T00:48:50.767Z,1001.76
2019-04-01T00:49:50.795Z,1001.79
2019-04-01T00:50:50.748Z,1001.75
2019-04-01T00:51:50.732Z,1001.74
2019-04-01T00:52:50.718Z,1001.80
2019-04-01T00:53:50.711Z,1001.82
2019-04-01T00:54:50.695Z,1001.80
2019-04-01T00:55:50.731Z,1001.87
2019-04-01T00:56:50.673Z,1001.92
2019-04-01T00:57:50.663Z,1001.92
2019-04-01T00:58:50.651Z,1002.01
2019-04-01T00:59:50.647Z,1001.98
2019-04-01T01:00:50.633Z,1002.00
2019-04-01T01:01:50.628Z,1001.96
2019-04-01T01:02:50.612Z,1001.99
2019-04-01T01:03:50.602Z,1001.97
2019-04-01T01:04:50.588Z,1001.98
2019-04-01T01:05:50.606Z,1002.02
2019-04-01T01:06:50.569Z,1002.04
2019-04-01T01:07:50.560Z,1002.01
2019-04-01T01:08:50.545Z,1002.04
2019-04-01T01:09:50.533Z,1002.04
2019-04-01T01:10:50.521Z,1002.01
2019-04-01T01:11:50.686Z,1002.04
2019-04-01T01:12:50.500Z,1002.02
2019-04-01T01:13:50.492Z,1002.03
2019-04-01T01:14:50.478Z,1002.06
2019-04-01T01:15:50.476Z,1002.09
2019-04-01T01:16:50.458Z,1002.08
2019-04-01T01:18:01.859Z,1002.04
2019-04-01T01:18:50.442Z,1002.07
2019-04-01T01:19:50.426Z,1002.08
2019-04-01T01:20:50.412Z,1002.11
2019-04-01T01:21:50.411Z,1002.10
2019-04-01T01:22:50.389Z,1002.11
2019-04-01T01:23:50.556Z,1002.14
2019-04-01T01:24:50.367Z,1002.10
2019-04-01T01:25:50.358Z,1002.12
2019-04-01T01:26:50.348Z,1002.17
2019-04-01T01:27:50.337Z,1002.12
2019-04-01T01:28:50.333Z,1002.17
2019-04-01T01:29:50.324Z,1002.19
2019-04-01T01:30:50.302Z,1002.22
2019-04-01T01:31:50.296Z,1002.24
2019-04-01T01:32:50.281Z,1002.26
2019-04-01T01:33:50.294Z,1002.30
2019-04-01T01:34:50.258Z,1002.33
2019-04-01T01:35:50.250Z,1002.28
2019-04-01T01:36:50.241Z,1002.32
2019-04-01T01:37:50.233Z,1002.29
2019-04-01T01:38:50.218Z,1002.28
2019-04-01T01:39:50.245Z,1002.28
2019-04-01T01:40:50.192Z,1002.26
2019-04-01T01:41:50.187Z,1002.28
2019-04-01T01:42:50.173Z,1002.35
2019-04-01T01:43:50.162Z,1002.32
2019-04-01T01:44:50.153Z,1002.35
2019-04-01T01:45:50.147Z,1002.39
2019-04-01T01:46:50.133Z,1002.44
2019-04-01T01:47:50.120Z,1002.44
2019-04-01T01:49:00.624Z,1002.47
2019-04-01T01:49:50.101Z,1002.43
2019-04-01T01:50:50.218Z,1002.43
2019-04-01T01:51:50.081Z,1002.44
2019-04-01T01:52:50.065Z,1002.44
2019-04-01T01:53:50.053Z,1002.43
2019-04-01T01:54:50.123Z,1002.45
2019-04-01T01:55:50.031Z,1002.41
2019-04-01T01:56:50.033Z,1002.41
2019-04-01T01:57:50.013Z,1002.41
2019-04-01T01:58:49.998Z,1002.38
2019-04-01T01:59:49.986Z,1002.39
2019-04-01T02:00:50.146Z,1002.39
2019-04-01T02:01:49.971Z,1002.45
2019-04-01T02:02:49.955Z,1002.48
2019-04-01T02:03:49.950Z,1002.55
2019-04-01T02:04:49.981Z,1002.52
2019-04-01T02:05:49.921Z,1002.58
2019-04-01T02:06:49.954Z,1002.56
2019-04-01T02:07:49.902Z,1002.59
2019-04-01T02:08:49.888Z,1002.58
2019-04-01T02:09:49.882Z,1002.59
2019-04-01T02:10:49.869Z,1002.62
2019-04-01T02:11:49.919Z,1002.71
2019-04-01T02:12:49.866Z,1002.66
2019-04-01T02:13:49.843Z,1002.74
2019-04-01T02:14:49.830Z,1002.79
2019-04-01T02:15:49.815Z,1002.82
2019-04-01T02:16:49.807Z,1002.86
2019-04-01T02:17:49.792Z,1002.93
2019-04-01T02:18:49.793Z,1002.92
2019-04-01T02:20:01.941Z,1002.91
2019-04-01T02:20:49.764Z,1002.99
2019-04-01T02:21:49.755Z,1002.97
2019-04-01T02:22:49.744Z,1002.95
2019-04-01T02:23:49.734Z,1003.00
2019-04-01T02:24:49.725Z,1003.01
2019-04-01T02:25:49.884Z,1003.04
2019-04-01T02:26:49.693Z,1003.02
2019-04-01T02:27:49.689Z,1003.09
2019-04-01T02:28:49.680Z,1003.07
2019-04-01T02:29:49.668Z,1003.05
2019-04-01T02:30:49.659Z,1003.10
2019-04-01T02:31:49.654Z,1003.10
2019-04-01T02:32:49.635Z,1003.12
2019-04-01T02:33:49.620Z,1003.18
2019-04-01T02:34:49.658Z,1003.23
2019-04-01T02:35:49.621Z,1003.24
2019-04-01T02:36:49.613Z,1003.22
2019-04-01T02:37:49.581Z,1003.30
2019-04-01T02:38:49.571Z,1003.34
2019-04-01T02:39:49.553Z,1003.30
2019-04-01T02:40:49.554Z,1003.36
2019-04-01T02:41:49.534Z,1003.38
2019-04-01T02:42:49.534Z,1003.42
2019-04-01T02:43:49.510Z,1003.42
2019-04-01T02:44:49.505Z,1003.40
2019-04-01T02:45:49.485Z,1003.45
2019-04-01T02:46:49.480Z,1003.44
2019-04-01T02:47:49.643Z,1003.43
2019-04-01T02:48:49.607Z,1003.45
2019-04-01T02:49:49.445Z,1003.47
2019-04-01T02:51:00.283Z,1003.48
2019-04-01T02:51:49.423Z,1003.47
2019-04-01T02:52:49.416Z,1003.51
2019-04-01T02:53:49.418Z,1003.51
2019-04-01T02:54:49.395Z,1003.55
2019-04-01T02:55:49.383Z,1003.54
2019-04-01T02:56:49.374Z,1003.57
2019-04-01T02:57:49.365Z,1003.59
2019-04-01T02:58:49.348Z,1003.55
2019-04-01T02:59:49.344Z,1003.61
2019-04-01T03:00:49.342Z,1003.66
2019-04-01T03:01:49.314Z,1003.71
2019-04-01T03:02:49.307Z,1003.67
2019-04-01T03:03:49.292Z,1003.68
2019-04-01T03:04:49.455Z,1003.67
2019-04-01T03:05:49.295Z,1003.69
2019-04-01T03:06:49.263Z,1003.72
2019-04-01T03:07:49.261Z,1003.78
2019-04-01T03:08:49.247Z,1003.78
2019-04-01T03:09:49.232Z,1003.83
2019-04-01T03:10:49.223Z,1003.84
2019-04-01T03:11:49.206Z,1003.87
2019-04-01T03:12:49.199Z,1003.88
2019-04-01T03:13:49.189Z,1003.87
2019-04-01T03:14:49.171Z,1003.86
2019-04-01T03:15:49.207Z,1003.82
2019-04-01T03:16:49.156Z,1003.90
2019-04-01T03:17:49.145Z,1003.89
2019-04-01T03:18:49.130Z,1003.86
2019-04-01T03:19:49.122Z,1003.94
2019-04-01T03:20:49.109Z,1003.93
2019-04-01T03:22:00.082Z,1003.93
2019-04-01T03:22:49.206Z,1003.93
2019-04-01T03:23:49.212Z,1003.95
2019-04-01T03:24:49.069Z,1004.02
2019-04-01T03:25:49.049Z,1004.01
2019-04-01T03:26:49.036Z,1004.06
2019-04-01T03:27:49.067Z,1004.02
2019-04-01T03:28:49.037Z,1004.03
2019-04-01T03:29:49.006Z,1004.09
2019-04-01T03:30:49.026Z,1004.13
2019-04-01T03:31:48.982Z,1004.11
2019-04-01T03:32:48.974Z,1004.12
2019-04-01T03:33:48.967Z,1004.18
2019-04-01T03:34:48.949Z,1004.17
2019-04-01T03:35:48.937Z,1004.22
2019-04-01T03:36:48.926Z,1004.26
2019-04-01T03:37:48.973Z,1004.29
2019-04-01T03:38:48.907Z,1004.25
2019-04-01T03:39:48.895Z,1004.30
2019-04-01T03:40:49.509Z,1004.30
2019-04-01T03:41:48.880Z,1004.30
2019-04-01T03:42:48.865Z,1004.30
2019-04-01T03:43:49.018Z,1004.37
2019-04-01T03:44:48.845Z,1004.35
2019-04-01T03:45:48.827Z,1004.38
2019-04-01T03:46:48.818Z,1004.38
2019-04-01T03:47:48.810Z,1004.39
2019-04-01T03:48:48.803Z,1004.41
2019-04-01T03:49:48.860Z,1004.39
2019-04-01T03:50:48.772Z,1004.44
2019-04-01T03:51:48.767Z,1004.44
2019-04-01T03:52:58.808Z,1004.42
2019-04-01T03:53:48.739Z,1004.46
2019-04-01T03:54:48.735Z,1004.47
2019-04-01T03:55:48.725Z,1004.48
2019-04-01T03:56:48.713Z,1004.49
2019-04-01T03:57:48.698Z,1004.56
2019-04-01T03:58:48.684Z,1004.58
2019-04-01T03:59:48.758Z,1004.60
2019-04-01T04:00:48.673Z,1004.69
2019-04-01T04:01:48.658Z,1004.63
2019-04-01T04:02:48.644Z,1004.61
2019-04-01T04:03:48.645Z,1004.63
2019-04-01T04:04:48.625Z,1004.68
2019-04-01T04:05:48.630Z,1004.66
2019-04-01T04:06:48.612Z,1004.67
2019-04-01T04:07:48.586Z,1004.68
2019-04-01T04:08:48.580Z,1004.69
2019-04-01T04:09:48.571Z,1004.71
2019-04-01T04:10:48.555Z,1004.71
2019-04-01T04:11:48.553Z,1004.71
2019-04-01T04:12:48.533Z,1004.75
2019-04-01T04:13:48.525Z,1004.73
2019-04-01T04:14:51.064Z,1004.79
2019-04-01T04:15:48.505Z,1004.83
2019-04-01T04:16:48.566Z,1004.82
2019-04-01T04:17:48.481Z,1004.91
2019-04-01T04:18:48.468Z,1004.86
2019-04-01T04:19:48.459Z,1004.91
2019-04-01T04:20:48.452Z,1004.87
2019-04-01T04:21:48.484Z,1004.88
2019-04-01T04:22:48.427Z,1004.98
2019-04-01T04:23:58.995Z,1004.96
2019-04-01T04:24:48.403Z,1004.97
2019-04-01T04:25:48.394Z,1005.00
2019-04-01T04:26:48.383Z,1005.05
2019-04-01T04:27:48.391Z,1005.10
2019-04-01T04:28:48.358Z,1005.07
2019-04-01T04:29:48.348Z,1005.11
2019-04-01T04:30:48.338Z,1005.13
2019-04-01T04:31:48.333Z,1005.15
2019-04-01T04:32:48.323Z,1005.17
2019-04-01T04:33:48.342Z,1005.15
2019-04-01T04:34:48.302Z,1005.16
2019-04-01T04:35:48.287Z,1005.16
2019-04-01T04:36:48.271Z,1005.20
2019-04-01T04:37:48.263Z,1005.21
2019-04-01T04:38:48.257Z,1005.25
2019-04-01T04:39:48.413Z,1005.35
2019-04-01T04:40:48.238Z,1005.35
2019-04-01T04:41:48.218Z,1005.39
2019-04-01T04:42:48.211Z,1005.32
2019-04-01T04:43:48.196Z,1005.39
2019-04-01T04:44:48.189Z,1005.38
2019-04-01T04:45:48.189Z,1005.44
2019-04-01T04:46:48.163Z,1005.47
2019-04-01T04:47:48.167Z,1005.47
2019-04-01T04:48:48.152Z,1005.49
2019-04-01T04:49:48.130Z,1005.54
2019-04-01T04:50:48.298Z,1005.51
2019-04-01T04:51:48.115Z,1005.50
2019-04-01T04:52:48.107Z,1005.51
2019-04-01T04:53:48.086Z,1005.55
2019-04-01T04:55:00.058Z,1005.56
2019-04-01T04:55:48.073Z,1005.65
2019-04-01T04:56:48.067Z,1005.66
2019-04-01T04:57:48.046Z,1005.75
2019-04-01T04:58:48.032Z,1005.69
2019-04-01T04:59:48.023Z,1005.83
2019-04-01T05:00:48.020Z,1005.80
2019-04-01T05:01:48.017Z,1005.82
2019-04-01T05:02:47.995Z,1005.81
2019-04-01T05:03:47.979Z,1005.86
2019-04-01T05:04:47.968Z,1005.87
2019-04-01T05:05:47.965Z,1005.87
2019-04-01T05:06:47.961Z,1005.88
2019-04-01T05:07:47.950Z,1005.90
2019-04-01T05:08:47.923Z,1005.96
2019-04-01T05:09:47.912Z,1005.98
2019-04-01T05:10:47.907Z,1005.96
2019-04-01T05:11:47.897Z,1005.99
2019-04-01T05:12:47.890Z,1005.98
2019-04-01T05:13:47.872Z,1006.05
2019-04-01T05:14:47.859Z,1006.10
2019-04-01T05:15:47.847Z,1006.07
2019-04-01T05:16:47.836Z,1006.10
2019-04-01T05:17:47.835Z,1006.08
2019-04-01T05:18:47.856Z,1006.08
2019-04-01T05:19:47.835Z,1006.06
2019-04-01T05:20:47.860Z,1006.11
2019-04-01T05:21:47.787Z,1006.10
2019-04-01T05:22:47.770Z,1006.16
2019-04-01T05:23:47.768Z,1006.16
2019-04-01T05:24:47.765Z,1006.15
2019-04-01T05:25:58.102Z,1006.18
2019-04-01T05:26:47.731Z,1006.21
2019-04-01T05:27:47.717Z,1006.19
2019-04-01T05:28:47.714Z,1006.19
2019-04-01T05:29:47.736Z,1006.22
2019-04-01T05:30:47.690Z,1006.25
2019-04-01T05:31:47.677Z,1006.29
2019-04-01T05:32:47.669Z,1006.35
2019-04-01T05:33:55.235Z,1006.29
2019-04-01T05:34:48.690Z,1006.31
2019-04-01T05:35:47.632Z,1006.36
2019-04-01T05:36:47.619Z,1006.40
2019-04-01T05:37:47.609Z,1006.43
2019-04-01T05:38:47.603Z,1006.47
2019-04-01T05:39:47.589Z,1006.51
2019-04-01T05:40:47.621Z,1006.49
2019-04-01T05:41:47.565Z,1006.53
2019-04-01T05:42:47.554Z,1006.48
2019-04-01T05:43:47.551Z,1006.56
2019-04-01T05:44:47.533Z,1006.49
2019-04-01T05:45:47.520Z,1006.57
2019-04-01T05:46:47.520Z,1006.57
2019-04-01T05:47:47.503Z,1006.62
2019-04-01T05:48:47.492Z,1006.60
2019-04-01T05:49:47.476Z,1006.64
2019-04-01T05:50:47.483Z,1006.66
2019-04-01T05:51:47.454Z,1006.76
2019-04-01T05:52:47.445Z,1006.70
2019-04-01T05:53:47.436Z,1006.68
2019-04-01T05:54:47.427Z,1006.70
2019-04-01T05:55:47.415Z,1006.73
2019-04-01T05:56:57.721Z,1006.79
2019-04-01T05:57:47.392Z,1006.77
2019-04-01T05:58:47.382Z,1006.80
2019-04-01T05:59:47.364Z,1006.83
2019-04-01T06:00:47.355Z,1006.86
2019-04-01T06:01:47.381Z,1006.86
2019-04-01T06:02:47.332Z,1006.85
2019-04-01T06:03:47.330Z,1006.89
2019-04-01T06:04:47.310Z,1006.93
2019-04-01T06:05:47.302Z,1006.99
2019-04-01T06:06:48.935Z,1007.02
2019-04-01T06:07:47.298Z,1007.04
2019-04-01T06:08:47.267Z,1007.03
2019-04-01T06:09:47.258Z,1007.05
2019-04-01T06:10:47.247Z,1007.03
2019-04-01T06:11:47.239Z,1007.07
2019-04-01T06:12:47.223Z,1007.06
2019-04-01T06:13:47.226Z,1007.06
2019-04-01T06:14:47.203Z,1007.11
2019-04-01T06:15:47.196Z,1007.12
2019-04-01T06:16:47.182Z,1007.15
2019-04-01T06:17:47.173Z,1007.19
2019-04-01T06:18:47.199Z,1007.18
2019-04-01T06:19:47.237Z,1007.23
2019-04-01T06:20:47.142Z,1007.20
2019-04-01T06:21:47.126Z,1007.26
2019-04-01T06:22:47.114Z,1007.26
2019-04-01T06:23:47.105Z,1007.31
2019-04-01T06:24:47.111Z,1007.30
2019-04-01T06:25:47.091Z,1007.37
2019-04-01T06:26:47.081Z,1007.30
2019-04-01T06:27:57.953Z,1007.37
2019-04-01T06:28:47.060Z,1007.38
2019-04-01T06:29:47.046Z,1007.35
2019-04-01T06:30:47.071Z,1007.47
2019-04-01T06:31:47.024Z,1007.48
2019-04-01T06:32:47.012Z,1007.56
2019-04-01T06:33:46.999Z,1007.59
2019-04-01T06:34:52.638Z,1007.59
2019-04-01T06:35:47.986Z,1007.62
2019-04-01T06:36:46.965Z,1007.66
2019-04-01T06:37:46.957Z,1007.67
2019-04-01T06:38:46.939Z,1007.63
2019-04-01T06:39:46.930Z,1007.68
2019-04-01T06:40:46.961Z,1007.70
2019-04-01T06:41:46.908Z,1007.77
2019-04-01T06:42:46.897Z,1007.74
2019-04-01T06:43:46.889Z,1007.78
2019-04-01T06:44:46.876Z,1007.65
2019-04-01T06:45:46.864Z,1007.76
2019-04-01T06:46:46.865Z,1007.81
2019-04-01T06:47:46.845Z,1007.79
2019-04-01T06:48:46.834Z,1007.83
2019-04-01T06:49:46.844Z,1007.84
2019-04-01T06:50:46.817Z,1007.81
2019-04-01T06:51:46.838Z,1007.85
2019-04-01T06:52:46.789Z,1007.82
2019-04-01T06:53:46.778Z,1007.94
2019-04-01T06:54:46.775Z,1007.93
2019-04-01T06:55:46.755Z,1007.98
2019-04-01T06:56:46.743Z,1007.96
2019-04-01T06:57:46.755Z,1008.01
2019-04-01T06:58:56.847Z,1007.94
2019-04-01T06:59:46.716Z,1007.98
2019-04-01T07:00:46.699Z,1008.00
2019-04-01T07:01:46.687Z,1008.00
2019-04-01T07:02:46.678Z,1008.01
2019-04-01T07:03:46.684Z,1008.01
2019-04-01T07:04:46.666Z,1008.04
2019-04-01T07:05:46.646Z,1008.08
2019-04-01T07:06:46.632Z,1008.13
2019-04-01T07:07:46.626Z,1008.10
2019-04-01T07:08:46.614Z,1008.19
2019-04-01T07:09:46.613Z,1008.21
2019-04-01T07:10:46.593Z,1008.19
2019-04-01T07:11:46.663Z,1008.17
2019-04-01T07:12:46.587Z,1008.17
2019-04-01T07:13:46.557Z,1008.13
2019-04-01T07:14:46.592Z,1008.18
2019-04-01T07:15:46.537Z,1008.20
2019-04-01T07:16:46.521Z,1008.17
2019-04-01T07:17:46.516Z,1008.20
2019-04-01T07:18:46.501Z,1008.20
2019-04-01T07:19:46.498Z,1008.23
2019-04-01T07:20:46.522Z,1008.20
2019-04-01T07:21:46.469Z,1008.24
2019-04-01T07:22:46.462Z,1008.21
2019-04-01T07:23:46.457Z,1008.29
2019-04-01T07:24:46.473Z,1008.29
2019-04-01T07:25:46.427Z,1008.30
2019-04-01T07:26:46.415Z,1008.30
2019-04-01T07:27:46.406Z,1008.27
2019-04-01T07:28:46.390Z,1008.25
2019-04-01T07:29:57.367Z,1008.28
2019-04-01T07:30:46.417Z,1008.23
2019-04-01T07:31:46.361Z,1008.29
2019-04-01T07:32:46.362Z,1008.23
2019-04-01T07:33:46.335Z,1008.27
2019-04-01T07:34:46.330Z,1008.28
2019-04-01T07:35:46.755Z,1008.27
2019-04-01T07:36:46.344Z,1008.30
2019-04-01T07:37:46.293Z,1008.28
2019-04-01T07:38:46.287Z,1008.27
2019-04-01T07:39:46.270Z,1008.24
2019-04-01T07:40:46.260Z,1008.27
2019-04-01T07:41:46.252Z,1008.27
2019-04-01T07:42:46.250Z,1008.24
2019-04-01T07:43:46.229Z,1008.25
2019-04-01T07:44:46.303Z,1008.29
2019-04-01T07:45:46.204Z,1008.30
2019-04-01T07:46:46.193Z,1008.30
2019-04-01T07:47:46.194Z,1008.31
2019-04-01T07:48:46.174Z,1008.31
2019-04-01T07:49:46.159Z,1008.33
2019-04-01T07:50:46.154Z,1008.34
2019-04-01T07:51:46.137Z,1008.44
2019-04-01T07:52:46.152Z,1008.43
2019-04-01T07:53:46.118Z,1008.44
2019-04-01T07:54:46.110Z,1008.48
2019-04-01T07:55:46.090Z,1008.49
2019-04-01T07:56:46.085Z,1008.50
2019-04-01T07:57:46.071Z,1008.55
2019-04-01T07:58:46.092Z,1008.55
2019-04-01T07:59:46.052Z,1008.57
2019-04-01T08:00:56.289Z,1008.53
2019-04-01T08:01:46.028Z,1008.53
2019-04-01T08:02:48.866Z,1008.53
2019-04-01T08:03:46.007Z,1008.51
2019-04-01T08:04:46.001Z,1008.49
2019-04-01T08:05:45.980Z,1008.49
2019-04-01T08:06:45.973Z,1008.52
2019-04-01T08:07:45.959Z,1008.52
2019-04-01T08:08:46.349Z,1008.47
2019-04-01T08:09:45.954Z,1008.58
2019-04-01T08:10:45.922Z,1008.53
2019-04-01T08:11:45.916Z,1008.58
2019-04-01T08:12:45.910Z,1008.56
2019-04-01T08:13:45.889Z,1008.59
2019-04-01T08:14:45.886Z,1008.63
2019-04-01T08:15:45.903Z,1008.64
2019-04-01T08:16:45.859Z,1008.73
2019-04-01T08:17:45.848Z,1008.67
2019-04-01T08:18:45.833Z,1008.66
2019-04-01T08:19:45.828Z,1008.70
2019-04-01T08:20:45.816Z,1008.74
2019-04-01T08:21:45.813Z,1008.76
2019-04-01T08:22:45.792Z,1008.77
2019-04-01T08:23:45.785Z,1008.86
2019-04-01T08:24:45.773Z,1008.84
2019-04-01T08:25:47.907Z,1008.88
2019-04-01T08:26:45.759Z,1008.87
2019-04-01T08:27:45.738Z,1008.88
2019-04-01T08:28:45.733Z,1008.89
2019-04-01T08:29:45.721Z,1008.89
2019-04-01T08:30:45.708Z,1008.90
2019-04-01T08:31:55.950Z,1008.94
2019-04-01T08:32:45.688Z,1008.96
2019-04-01T08:33:45.674Z,1008.98
2019-04-01T08:34:45.661Z,1009.00
2019-04-01T08:35:45.651Z,1009.02
2019-04-01T08:36:45.637Z,1009.00
2019-04-01T08:37:45.640Z,1009.08
2019-04-01T08:38:45.618Z,1009.13
2019-04-01T08:39:45.609Z,1009.06
2019-04-01T08:40:45.593Z,1009.09
2019-04-01T08:41:45.585Z,1009.15
2019-04-01T08:42:48.816Z,1009.11
2019-04-01T08:43:45.588Z,1009.12
2019-04-01T08:44:45.553Z,1009.12
2019-04-01T08:45:45.548Z,1009.19
2019-04-01T08:46:45.531Z,1009.20
2019-04-01T08:47:45.526Z,1009.17
2019-04-01T08:48:45.512Z,1009.20
2019-04-01T08:49:45.544Z,1009.22
2019-04-01T08:50:45.491Z,1009.18
2019-04-01T08:51:45.480Z,1009.23
2019-04-01T08:52:45.471Z,1009.28
2019-04-01T08:53:45.458Z,1009.26
2019-04-01T08:54:45.444Z,1009.25
2019-04-01T08:55:45.437Z,1009.25
2019-04-01T08:56:45.430Z,1009.22
2019-04-01T08:57:45.415Z,1009.26
2019-04-01T08:58:45.439Z,1009.22
2019-04-01T08:59:45.389Z,1009.28
2019-04-01T09:00:45.381Z,1009.33
2019-04-01T09:01:45.365Z,1009.30
2019-04-01T09:02:57.098Z,1009.28
2019-04-01T09:03:45.343Z,1009.25
2019-04-01T09:04:45.374Z,1009.35
2019-04-01T09:05:45.368Z,1009.42
2019-04-01T09:06:45.314Z,1009.36
2019-04-01T09:07:45.301Z,1009.37
2019-04-01T09:08:45.291Z,1009.40
2019-04-01T09:09:45.281Z,1009.43
2019-04-01T09:10:45.274Z,1009.48
2019-04-01T09:11:45.293Z,1009.44
2019-04-01T09:12:45.242Z,1009.50
2019-04-01T09:13:45.970Z,1009.56
2019-04-01T09:14:45.223Z,1009.56
2019-04-01T09:15:45.289Z,1009.48
2019-04-01T09:16:45.209Z,1009.52
2019-04-01T09:17:45.216Z,1009.53
2019-04-01T09:18:45.178Z,1009.52
2019-04-01T09:19:45.168Z,1009.56
2019-04-01T09:20:45.156Z,1009.53
2019-04-01T09:21:45.146Z,1009.57
2019-04-01T09:22:45.137Z,1009.60
2019-04-01T09:23:45.145Z,1009.62
2019-04-01T09:24:45.108Z,1009.65
2019-04-01T09:25:45.100Z,1009.68
2019-04-01T09:26:45.098Z,1009.68
2019-04-01T09:27:45.077Z,1009.75
2019-04-01T09:28:45.065Z,1009.72
2019-04-01T09:29:45.080Z,1009.78
2019-04-01T09:30:45.042Z,1009.74
2019-04-01T09:31:45.035Z,1009.82
2019-04-01T09:32:45.019Z,1009.83
2019-04-01T09:33:55.062Z,1009.86
2019-04-01T09:34:45.034Z,1009.85
2019-04-01T09:35:44.992Z,1009.83
2019-04-01T09:36:44.979Z,1009.84
2019-04-01T09:37:44.964Z,1009.84
2019-04-01T09:38:44.954Z,1009.82
2019-04-01T09:39:44.949Z,1009.87
2019-04-01T09:40:44.947Z,1009.86
2019-04-01T09:41:44.928Z,1009.86
2019-04-01T09:42:44.907Z,1009.90
2019-04-01T09:43:44.896Z,1009.94
2019-04-01T09:44:44.923Z,1009.87
2019-04-01T09:45:44.886Z,1009.82
2019-04-01T09:46:44.870Z,1009.95
2019-04-01T09:47:44.857Z,1009.93
2019-04-01T09:48:44.846Z,1009.94
2019-04-01T09:49:44.833Z,1010.01
2019-04-01T09:50:44.827Z,1010.01
2019-04-01T09:51:48.706Z,1009.93
2019-04-01T09:52:44.801Z,1009.96
2019-04-01T09:53:44.791Z,1010.03
2019-04-01T09:54:44.779Z,1010.02
2019-04-01T09:55:44.865Z,1010.01
2019-04-01T09:56:44.751Z,1010.09
2019-04-01T09:57:44.746Z,1010.10
2019-04-01T09:58:44.730Z,1010.12
2019-04-01T09:59:44.719Z,1010.10
2019-04-01T10:00:44.710Z,1010.06
2019-04-01T10:01:44.708Z,1010.13
2019-04-01T10:02:44.691Z,1010.09
2019-04-01T10:03:44.682Z,1010.10
2019-04-01T10:04:56.083Z,1010.10
2019-04-01T10:05:44.659Z,1010.12
2019-04-01T10:06:44.649Z,1010.15
2019-04-01T10:07:44.706Z,1010.14
2019-04-01T10:08:44.622Z,1010.16
2019-04-01T10:09:44.609Z,1010.20
2019-04-01T10:10:44.603Z,1010.24
2019-04-01T10:11:44.635Z,1010.20
2019-04-01T10:12:44.585Z,1010.17
2019-04-01T10:13:44.575Z,1010.30
2019-04-01T10:14:44.562Z,1010.23
2019-04-01T10:15:44.551Z,1010.24
2019-04-01T10:16:44.543Z,1010.32
2019-04-01T10:17:44.565Z,1010.28
2019-04-01T10:18:44.513Z,1010.28
2019-04-01T10:19:44.502Z,1010.33
2019-04-01T10:20:44.500Z,1010.41
2019-04-01T10:21:45.355Z,1010.31
2019-04-01T10:22:44.494Z,1010.34
2019-04-01T10:23:44.470Z,1010.36
2019-04-01T10:24:44.451Z,1010.43
2019-04-01T10:25:44.437Z,1010.39
2019-04-01T10:26:44.423Z,1010.41
2019-04-01T10:27:44.414Z,1010.43
2019-04-01T10:28:44.412Z,1010.43
2019-04-01T10:29:44.394Z,1010.45
2019-04-01T10:30:44.380Z,1010.44
2019-04-01T10:31:44.373Z,1010.42
2019-04-01T10:32:44.362Z,1010.49
2019-04-01T10:33:44.359Z,1010.49
2019-04-01T10:34:44.335Z,1010.50
2019-04-01T10:35:55.882Z,1010.49
2019-04-01T10:36:44.312Z,1010.49
2019-04-01T10:37:44.308Z,1010.49
2019-04-01T10:38:46.605Z,1010.49
2019-04-01T10:39:44.288Z,1010.49
2019-04-01T10:40:44.270Z,1010.43
2019-04-01T10:41:44.264Z,1010.51
2019-04-01T10:42:44.246Z,1010.50
2019-04-01T10:43:44.242Z,1010.48
2019-04-01T10:44:44.243Z,1010.59
2019-04-01T10:45:44.218Z,1010.61
2019-04-01T10:46:44.227Z,1010.57
2019-04-01T10:47:44.197Z,1010.68
2019-04-01T10:48:44.189Z,1010.69
2019-04-01T10:49:44.198Z,1010.68
2019-04-01T10:50:44.182Z,1010.65
2019-04-01T10:51:44.153Z,1010.65
2019-04-01T10:52:44.492Z,1010.64
2019-04-01T10:53:44.161Z,1010.69
2019-04-01T10:54:44.165Z,1010.69
2019-04-01T10:55:44.165Z,1010.74
2019-04-01T10:56:44.160Z,1010.67
2019-04-01T10:57:44.192Z,1010.76
2019-04-01T10:58:44.110Z,1010.81
2019-04-01T10:59:44.150Z,1010.76
2019-04-01T11:00:44.085Z,1010.75
2019-04-01T11:01:44.069Z,1010.74
2019-04-01T11:02:44.064Z,1010.75
2019-04-01T11:03:44.083Z,1010.71
2019-04-01T11:04:44.060Z,1010.75
2019-04-01T11:05:44.023Z,1010.71
2019-04-01T11:06:54.243Z,1010.68
2019-04-01T11:07:44.009Z,1010.72
2019-04-01T11:08:43.959Z,1010.65
2019-04-01T11:09:43.948Z,1010.69
2019-04-01T11:10:43.969Z,1010.78
2019-04-01T11:11:43.920Z,1010.72
2019-04-01T11:12:43.906Z,1010.70
2019-04-01T11:13:43.900Z,1010.67
2019-04-01T11:14:43.887Z,1010.71
2019-04-01T11:15:43.873Z,1010.73
2019-04-01T11:16:43.876Z,1010.68
2019-04-01T11:17:44.052Z,1010.70
2019-04-01T11:18:43.844Z,1010.73
2019-04-01T11:19:43.827Z,1010.69
2019-04-01T11:20:43.821Z,1010.72
2019-04-01T11:21:43.842Z,1010.76
2019-04-01T11:22:43.798Z,1010.80
2019-04-01T11:23:43.786Z,1010.78
2019-04-01T11:24:43.777Z,1010.78
2019-04-01T11:25:43.765Z,1010.80
2019-04-01T11:26:43.751Z,1010.83
2019-04-01T11:27:43.745Z,1010.81
2019-04-01T11:28:43.732Z,1010.78
2019-04-01T11:29:43.734Z,1010.79
2019-04-01T11:30:43.735Z,1010.81
2019-04-01T11:31:43.697Z,1010.81
2019-04-01T11:32:43.765Z,1010.84
2019-04-01T11:33:43.693Z,1010.93
2019-04-01T11:34:43.679Z,1010.85
2019-04-01T11:35:43.651Z,1010.88
2019-04-01T11:36:43.645Z,1010.87
2019-04-01T11:37:54.232Z,1010.85
2019-04-01T11:38:43.667Z,1010.82
2019-04-01T11:39:43.617Z,1010.85
2019-04-01T11:40:44.110Z,1010.92
2019-04-01T11:41:43.614Z,1010.93
2019-04-01T11:42:43.648Z,1010.94
2019-04-01T11:43:43.591Z,1010.90
2019-04-01T11:44:43.560Z,1010.86
2019-04-01T11:45:43.556Z,1010.85
2019-04-01T11:46:43.566Z,1010.85
2019-04-01T11:47:43.570Z,1010.91
2019-04-01T11:48:43.521Z,1010.91
2019-04-01T11:49:43.557Z,1010.86
2019-04-01T11:50:43.483Z,1010.89
2019-04-01T11:51:43.505Z,1010.98
2019-04-01T11:52:43.470Z,1010.95
2019-04-01T11:53:43.451Z,1010.92
2019-04-01T11:54:43.471Z,1010.95
2019-04-01T11:55:43.425Z,1010.96
2019-04-01T11:56:43.416Z,1010.92
2019-04-01T11:57:43.404Z,1010.91
2019-04-01T11:58:43.391Z,1010.91
2019-04-01T11:59:43.385Z,1010.92
2019-04-01T12:00:43.381Z,1010.93
2019-04-01T12:01:43.354Z,1010.91
2019-04-01T12:02:43.344Z,1010.95
2019-04-01T12:03:43.333Z,1010.95
2019-04-01T12:04:43.323Z,1010.94
2019-04-01T12:05:43.321Z,1010.99